Time;durP1;ratioP1;P1;durP2;ratioP2;P2;SDS_P1;SDS_P2;PMS_P1;PMS_P2;Temp;Humidity;BMP_temperature;BMP_pressure;BME280_temperature;BME280_humidity;BME280_pressure;Samples;Min_cycle;Max_cycle;Signal;HPM_P1;HPM_P2
2023/04/13 00:02:09;;;;;;;0.50;0.50;;;9.20;99.90;;;9.20;nan;99423.69;5014075;28;20677;-65
2023/04/13 00:04:36;;;;;;;0.40;0.40;;;9.10;99.90;;;9.19;nan;99409.03;5009128;28;20666;-64
2023/04/13 00:07:03;;;;;;;0.30;0.30;;;9.10;99.90;;;9.13;nan;99408.72;4989294;28;21023;-65
2023/04/13 00:09:30;;;;;;;0.40;0.40;;;9.00;99.90;;;9.11;nan;99416.69;4992189;28;20677;-65
2023/04/13 00:11:57;;;;;;;0.30;0.30;;;9.00;99.90;;;9.09;nan;99415.97;4991970;28;21015;-66
2023/04/13 00:14:26;;;;;;;0.30;0.30;;;8.90;99.90;;;9.03;nan;99406.06;4993781;28;20681;-65
2023/04/13 00:16:53;;;;;;;0.40;0.40;;;8.90;99.90;;;9.03;nan;99403.47;5002023;28;20669;-66
2023/04/13 00:19:20;;;;;;;0.47;0.47;;;8.90;99.90;;;9.05;nan;99398.16;5002305;28;20638;-66
2023/04/13 00:21:47;;;;;;;0.50;0.40;;;8.90;99.90;;;9.00;nan;99405.53;5014377;28;20636;-65
2023/04/13 00:24:14;;;;;;;0.57;0.40;;;8.90;99.90;;;8.94;nan;99403.44;4998937;28;20634;-65
2023/04/13 00:26:41;;;;;;;0.20;0.20;;;8.80;99.90;;;8.91;nan;99398.47;5000669;28;20629;-66
2023/04/13 00:29:09;;;;;;;0.47;0.37;;;8.80;99.90;;;8.86;nan;99401.47;4997124;28;20642;-65
2023/04/13 00:31:36;;;;;;;0.40;0.40;;;8.80;99.90;;;8.86;nan;99400.66;4983593;28;20603;-65
2023/04/13 00:34:03;;;;;;;0.47;0.47;;;8.70;99.90;;;8.84;nan;99400.78;4987690;28;20640;-65
2023/04/13 00:36:30;;;;;;;0.30;0.30;;;8.70;99.90;;;8.87;nan;99395.34;4994996;28;20669;-65
2023/04/13 00:38:58;;;;;;;1.87;0.60;;;8.80;99.90;;;8.87;nan;99395.34;4986380;28;20610;-65
2023/04/13 00:41:25;;;;;;;0.57;0.37;;;8.80;99.90;;;8.82;nan;99392.28;4993147;28;20602;-65
2023/04/13 00:43:52;;;;;;;0.47;0.47;;;8.70;99.90;;;8.81;nan;99388.06;4992710;28;20634;-64
2023/04/13 00:46:20;;;;;;;0.40;0.40;;;8.70;99.90;;;8.78;nan;99396.09;4996922;28;20657;-67
2023/04/13 00:48:47;;;;;;;1.33;0.40;;;8.70;99.90;;;8.74;nan;99393.88;5002524;28;20644;-66
2023/04/13 00:51:15;;;;;;;0.30;0.30;;;8.70;99.90;;;8.71;nan;99400.16;5008471;28;21184;-66
2023/04/13 00:53:43;;;;;;;0.40;0.40;;;8.60;99.90;;;8.71;nan;99402.75;4993520;28;20637;-65
2023/04/13 00:56:11;;;;;;;0.40;0.40;;;8.60;99.90;;;8.68;nan;99400.44;4992609;28;20677;-66
2023/04/13 00:58:38;;;;;;;0.40;0.40;;;8.60;99.90;;;8.65;nan;99398.06;4992412;28;20716;-66
2023/04/13 01:01:05;;;;;;;0.50;0.43;;;8.50;99.90;;;8.58;nan;99402.16;4991710;28;20630;-66
2023/04/13 01:03:32;;;;;;;0.30;0.30;;;8.50;99.90;;;8.56;nan;99394.47;5009448;28;20632;-65
2023/04/13 01:06:42;;;;;;;0.43;0.43;;;8.50;99.90;;;8.58;nan;99392.56;5003543;28;20665;-65
2023/04/13 01:09:19;;;;;;;0.30;0.30;;;8.50;99.90;;;8.58;nan;99389.16;4932359;29;21240;-66
2023/04/13 01:12:15;;;;;;;0.23;0.23;;;8.50;99.90;;;8.52;nan;99389.63;4932442;29;20617;-65
2023/04/13 01:14:58;;;;;;;0.20;0.20;;;8.40;99.90;;;8.51;nan;99378.44;4972018;28;20661;-67
2023/04/13 01:17:29;;;;;;;0.20;0.20;;;8.40;99.90;;;8.55;nan;99392.00;5004378;28;20601;-66
2023/04/13 01:20:00;;;;;;;0.30;0.30;;;8.40;99.90;;;8.56;nan;99391.84;4994029;28;20649;-64
2023/04/13 01:22:34;;;;;;;1.33;0.50;;;8.40;99.90;;;8.55;nan;99384.19;4993568;28;20625;-65
2023/04/13 01:25:29;;;;;;;0.67;0.57;;;8.40;99.90;;;8.52;nan;99377.47;4992774;28;20700;-66
2023/04/13 01:28:24;;;;;;;0.60;0.40;;;8.40;99.90;;;8.56;nan;99385.84;4992838;28;20633;-65
2023/04/13 01:30:53;;;;;;;0.50;0.50;;;8.50;99.90;;;8.57;nan;99383.13;4986187;28;20634;-64
2023/04/13 01:33:21;;;;;;;0.40;0.40;;;8.50;99.90;;;8.57;nan;99384.88;4992742;28;20701;-66
2023/04/13 01:35:49;;;;;;;0.50;0.50;;;8.50;99.90;;;8.61;nan;99388.88;4993658;28;21191;-65
2023/04/13 01:38:25;;;;;;;0.40;0.40;;;8.50;99.90;;;8.63;nan;99397.38;4992191;28;20614;-65
2023/04/13 01:40:52;;;;;;;0.40;0.40;;;8.60;99.90;;;8.64;nan;99395.59;4993779;28;21033;-64
2023/04/13 01:43:19;;;;;;;0.30;0.30;;;8.60;99.90;;;8.67;nan;99392.75;4991014;28;20630;-65
2023/04/13 01:46:10;;;;;;;0.70;0.70;;;8.60;99.90;;;8.71;nan;99407.16;4991855;28;20665;-67
2023/04/13 01:48:47;;;;;;;2.40;0.50;;;8.60;99.90;;;8.76;nan;99411.00;4982569;28;20645;-66
2023/04/13 01:51:31;;;;;;;0.40;0.40;;;8.70;99.90;;;8.80;nan;99396.78;4982165;28;20626;-65
2023/04/13 01:54:19;;;;;;;0.20;0.20;;;8.70;99.90;;;8.85;nan;99410.25;4990636;28;20965;-66
2023/04/13 01:56:47;;;;;;;0.30;0.30;;;8.80;99.90;;;8.89;nan;99416.84;4995782;28;20646;-65
2023/04/13 01:59:15;;;;;;;0.30;0.30;;;8.80;99.90;;;8.87;nan;99410.09;4999484;28;20706;-65
2023/04/13 02:01:42;;;;;;;0.40;0.30;;;8.80;99.90;;;8.93;nan;99407.81;4992011;28;20661;-64
2023/04/13 02:04:09;;;;;;;1.60;0.30;;;8.80;99.90;;;8.95;nan;99403.31;4992738;28;20642;-64
2023/04/13 02:06:37;;;;;;;0.30;0.30;;;8.90;99.90;;;8.96;nan;99412.78;4996672;28;20657;-64
2023/04/13 02:09:06;;;;;;;0.40;0.40;;;8.90;99.90;;;8.98;nan;99416.06;5011183;28;20633;-65
2023/04/13 02:11:34;;;;;;;0.30;0.30;;;8.80;99.90;;;8.99;nan;99409.88;4999562;28;20652;-63
2023/04/13 02:14:02;;;;;;;0.63;0.40;;;8.90;99.90;;;9.00;nan;99401.16;4998635;28;20642;-64
2023/04/13 02:16:29;;;;;;;0.63;0.53;;;8.90;99.90;;;8.99;nan;99402.09;4991725;28;20670;-64
2023/04/13 02:18:59;;;;;;;0.30;0.30;;;8.90;99.90;;;9.02;nan;99407.03;4990734;28;21228;-64
2023/04/13 02:21:27;;;;;;;0.30;0.30;;;8.90;99.90;;;9.08;nan;99406.53;4989368;28;20642;-65
2023/04/13 02:23:53;;;;;;;0.30;0.30;;;9.00;99.90;;;9.11;nan;99405.44;4992231;28;20626;-63
2023/04/13 02:26:20;;;;;;;1.07;0.50;;;9.00;99.90;;;9.09;nan;99421.16;4991941;28;20666;-65
2023/04/13 02:28:50;;;;;;;0.40;0.40;;;9.00;99.90;;;9.14;nan;99415.56;4991536;28;20639;-64
2023/04/13 02:31:18;;;;;;;0.30;0.30;;;9.00;99.90;;;9.20;nan;99413.28;4991059;28;20622;-64
2023/04/13 02:33:46;;;;;;;1.73;0.60;;;9.10;99.90;;;9.20;nan;99413.28;4990247;28;20626;-64
2023/04/13 02:36:16;;;;;;;9.93;0.50;;;9.10;99.90;;;9.14;nan;99410.38;4992600;28;20763;-64
2023/04/13 02:38:43;;;;;;;0.30;0.30;;;9.00;99.90;;;9.15;nan;99417.22;4987586;28;20642;-64
2023/04/13 02:41:10;;;;;;;1.50;0.40;;;9.00;99.90;;;9.20;nan;99405.47;5002035;28;20622;-65
2023/04/13 02:43:37;;;;;;;0.50;0.50;;;9.00;99.90;;;9.21;nan;99403.69;4997675;28;20634;-61
2023/04/13 02:46:04;;;;;;;0.40;0.40;;;9.10;99.90;;;9.22;nan;99400.94;4992155;28;21292;-66
2023/04/13 02:48:31;;;;;;;0.33;0.33;;;9.10;99.90;;;9.28;nan;99402.22;4987718;28;20713;-64
2023/04/13 02:50:58;;;;;;;0.30;0.30;;;9.10;99.90;;;9.25;nan;99397.25;4997468;28;20637;-64
2023/04/13 02:53:26;;;;;;;0.30;0.30;;;9.10;99.90;;;9.27;nan;99401.38;4994473;28;20639;-64
2023/04/13 02:55:54;;;;;;;0.50;0.50;;;9.10;99.90;;;9.29;nan;99398.66;4985129;28;20682;-64
2023/04/13 02:58:22;;;;;;;0.50;0.40;;;9.20;99.90;;;9.25;nan;99402.47;5001347;28;20753;-64
2023/04/13 03:00:49;;;;;;;0.40;0.40;;;9.20;99.90;;;9.24;nan;99411.25;4998630;28;21223;-64
2023/04/13 03:03:16;;;;;;;0.30;0.30;;;9.10;99.90;;;9.24;nan;99411.25;5010353;28;20614;-64
2023/04/13 03:05:43;;;;;;;0.87;0.40;;;9.10;99.90;;;9.25;nan;99415.47;4993142;28;20666;-64
2023/04/13 03:08:10;;;;;;;0.30;0.30;;;9.20;99.90;;;9.18;nan;99409.97;5008241;28;20610;-63
2023/04/13 03:10:37;;;;;;;0.40;0.40;;;9.10;99.90;;;9.14;nan;99410.38;4994518;28;20638;-64
2023/04/13 03:13:04;;;;;;;0.40;0.40;;;9.00;99.90;;;9.06;nan;99407.59;4991802;28;20645;-64
2023/04/13 03:15:31;;;;;;;0.30;0.30;;;9.00;99.90;;;9.09;nan;99421.16;4988801;28;20669;-64
2023/04/13 03:17:58;;;;;;;1.17;0.50;;;9.00;99.90;;;9.08;nan;99419.53;4990194;28;20634;-63
2023/04/13 03:20:27;;;;;;;0.30;0.30;;;9.00;99.90;;;9.10;nan;99417.63;4979816;28;20712;-64
2023/04/13 03:22:57;;;;;;;0.30;0.30;;;9.00;99.90;;;9.04;nan;99407.72;4989384;28;21201;-62
2023/04/13 03:25:24;;;;;;;0.33;0.33;;;9.00;99.90;;;9.01;nan;99414.97;4985158;28;20673;-64
2023/04/13 03:27:51;;;;;;;0.30;0.30;;;8.90;99.90;;;9.01;nan;99410.59;4983946;28;20649;-64
2023/04/13 03:30:18;;;;;;;1.53;0.30;;;8.90;99.90;;;8.99;nan;99415.09;4989021;28;20642;-62
2023/04/13 03:32:45;;;;;;;3.13;0.60;;;8.90;99.90;;;8.98;nan;99403.06;4991751;28;20594;-66
2023/04/13 03:35:12;;;;;;;0.30;0.30;;;8.80;99.90;;;8.96;nan;99399.75;4988974;28;20658;-64
2023/04/13 03:37:41;;;;;;;0.40;0.40;;;8.90;99.90;;;8.97;nan;99404.00;4990908;28;20658;-62
2023/04/13 03:40:09;;;;;;;0.30;0.30;;;8.80;99.90;;;9.02;nan;99406.22;4989337;28;20633;-64
2023/04/13 03:42:37;;;;;;;0.30;0.30;;;8.90;99.90;;;8.95;nan;99400.69;4991816;28;20645;-63
2023/04/13 03:45:05;;;;;;;0.40;0.40;;;8.90;99.90;;;8.91;nan;99404.53;4988797;28;20666;-63
2023/04/13 03:47:32;;;;;;;0.70;0.70;;;8.80;99.90;;;8.93;nan;99405.22;4988151;28;20727;-64
2023/04/13 03:49:59;;;;;;;0.30;0.30;;;8.90;99.90;;;8.92;nan;99403.53;4990310;28;20622;-64
2023/04/13 03:52:26;;;;;;;0.40;0.40;;;8.80;99.90;;;8.93;nan;99405.22;4988462;28;20619;-63
2023/04/13 03:54:53;;;;;;;0.30;0.30;;;8.80;99.90;;;8.91;nan;99403.69;4991179;28;21221;-63
2023/04/13 03:57:21;;;;;;;1.00;0.30;;;8.80;99.90;;;8.91;nan;99407.13;4997369;28;20673;-63
2023/04/13 03:59:48;;;;;;;0.60;0.60;;;8.80;99.90;;;8.90;nan;99418.47;4990928;28;21210;-64
2023/04/13 04:02:15;;;;;;;0.40;0.40;;;8.80;99.90;;;8.89;nan;99416.84;5001919;28;20691;-66
2023/04/13 04:04:42;;;;;;;0.30;0.30;;;8.80;99.90;;;8.84;nan;99428.59;4992321;28;20663;-65
2023/04/13 04:07:10;;;;;;;0.40;0.40;;;8.80;99.90;;;8.77;nan;99420.47;4996336;28;20844;-63
2023/04/13 04:09:37;;;;;;;0.43;0.30;;;8.70;99.90;;;8.75;nan;99430.19;4990681;28;20614;-63
2023/04/13 04:12:04;;;;;;;0.40;0.40;;;8.70;99.90;;;8.82;nan;99431.28;4988126;28;20643;-63
2023/04/13 04:14:31;;;;;;;0.50;0.50;;;8.70;99.90;;;8.82;nan;99439.09;4988384;28;21008;-63
2023/04/13 04:16:58;;;;;;;0.47;0.47;;;8.70;99.90;;;8.87;nan;99439.53;4990100;28;21087;-63
2023/04/13 04:19:25;;;;;;;0.70;0.40;;;8.80;99.90;;;8.93;nan;99441.63;4990040;28;21263;-63
2023/04/13 04:21:56;;;;;;;0.40;0.40;;;8.80;99.90;;;8.95;nan;99439.72;4994344;28;20638;-63
2023/04/13 04:24:26;;;;;;;0.40;0.40;;;8.90;99.90;;;8.95;nan;99450.13;4998534;28;20606;-64
2023/04/13 04:26:54;;;;;;;0.30;0.30;;;8.90;99.90;;;8.94;nan;99445.91;4998047;28;21232;-66
2023/04/13 04:29:32;;;;;;;0.40;0.40;;;8.80;99.90;;;8.94;nan;99445.91;4990624;28;20645;-63
2023/04/13 04:32:04;;;;;;;0.40;0.40;;;8.80;99.90;;;8.99;nan;99456.72;4987357;28;20742;-62
2023/04/13 04:34:31;;;;;;;3.50;0.60;;;8.90;99.90;;;9.02;nan;99450.44;4983318;28;20797;-64
2023/04/13 04:36:58;;;;;;;0.70;0.43;;;8.90;99.90;;;8.98;nan;99452.47;4983114;28;20676;-64
2023/04/13 04:39:31;;;;;;;2.00;0.50;;;8.90;99.90;;;8.93;nan;99464.22;4985721;28;20665;-64
2023/04/13 04:42:04;;;;;;;0.37;0.37;;;8.90;99.90;;;8.95;nan;99460.53;4983131;28;21400;-64
2023/04/13 04:44:31;;;;;;;2.73;0.60;;;8.90;99.90;;;8.97;nan;99460.41;4986924;28;20668;-65
2023/04/13 04:47:03;;;;;;;0.30;0.30;;;8.90;99.90;;;9.00;nan;99466.19;4986199;28;20642;-64
2023/04/13 04:49:29;;;;;;;0.50;0.50;;;8.90;99.90;;;9.02;nan;99469.47;4984169;28;20696;-64
2023/04/13 04:51:57;;;;;;;0.73;0.53;;;8.90;99.90;;;9.07;nan;99472.50;4991227;28;21217;-64
2023/04/13 04:54:24;;;;;;;0.50;0.50;;;9.00;99.90;;;9.06;nan;99473.47;4986645;28;21144;-62
2023/04/13 04:56:52;;;;;;;0.60;0.60;;;9.00;99.90;;;9.11;nan;99470.50;4997428;28;20697;-64
2023/04/13 04:59:19;;;;;;;3.33;0.60;;;9.00;99.90;;;9.09;nan;99477.59;4992658;28;20684;-64
2023/04/13 05:01:48;;;;;;;0.73;0.73;;;9.00;99.90;;;9.10;nan;99480.06;4993203;28;21186;-64
2023/04/13 05:04:15;;;;;;;1.07;0.60;;;9.00;99.90;;;9.13;nan;99482.41;4997650;28;20637;-64
2023/04/13 05:06:43;;;;;;;0.77;0.77;;;9.00;99.90;;;9.19;nan;99481.91;4991771;28;20626;-66
2023/04/13 05:09:10;;;;;;;1.90;0.87;;;9.10;99.90;;;9.25;nan;99481.38;4995955;28;20614;-64
2023/04/13 05:11:37;;;;;;;1.00;0.83;;;9.20;99.90;;;9.31;nan;99473.06;4993895;28;20673;-63
2023/04/13 05:14:04;;;;;;;1.80;0.40;;;9.20;99.90;;;9.30;nan;99475.78;4991085;28;20672;-65
2023/04/13 05:16:32;;;;;;;1.07;0.30;;;9.20;99.90;;;9.31;nan;99475.66;4982840;28;21038;-64
2023/04/13 05:19:00;;;;;;;4.00;0.40;;;9.30;99.90;;;9.43;nan;99483.38;4989285;28;20703;-64
2023/04/13 05:21:27;;;;;;;1.93;0.90;;;9.30;99.90;;;9.48;nan;99491.59;4990213;28;20631;-64
2023/04/13 05:23:55;;;;;;;3.63;0.80;;;9.40;99.90;;;9.57;nan;99480.41;4992948;28;20598;-65
2023/04/13 05:26:24;;;;;;;2.50;0.70;;;9.50;99.90;;;9.67;nan;99486.50;4992454;28;20670;-66
2023/04/13 05:28:51;;;;;;;0.83;0.50;;;9.60;99.90;;;9.68;nan;99488.13;4990361;28;21198;-66
2023/04/13 05:31:18;;;;;;;0.57;0.57;;;9.60;99.90;;;9.78;nan;99494.19;4990662;28;20639;-66
2023/04/13 05:33:45;;;;;;;0.70;0.70;;;9.70;99.90;;;9.84;nan;99488.44;4991826;28;20602;-66
2023/04/13 05:36:12;;;;;;;1.90;0.87;;;9.80;99.90;;;9.86;nan;99499.59;4988777;28;20674;-65
2023/04/13 05:38:39;;;;;;;0.60;0.60;;;9.80;99.90;;;9.87;nan;99496.84;4992292;28;20622;-63
2023/04/13 05:41:06;;;;;;;1.40;0.90;;;9.80;99.90;;;9.91;nan;99506.03;4991144;28;20642;-63
2023/04/13 05:43:36;;;;;;;2.17;1.10;;;9.80;99.90;;;9.92;nan;99507.66;4984513;28;20642;-64
2023/04/13 05:46:03;;;;;;;1.47;1.13;;;9.80;99.90;;;9.90;nan;99509.56;4992194;28;20650;-63
2023/04/13 05:48:30;;;;;;;7.30;1.20;;;9.80;99.90;;;9.97;nan;99523.72;4990008;28;20665;-65
2023/04/13 05:51:00;;;;;;;1.60;0.60;;;9.90;99.90;;;9.97;nan;99517.69;4991216;28;21019;-63
2023/04/13 05:53:27;;;;;;;2.50;1.00;;;9.90;99.90;;;10.00;nan;99520.03;4987610;28;20639;-63
2023/04/13 05:55:54;;;;;;;0.60;0.60;;;9.90;99.90;;;10.02;nan;99515.50;4988632;28;20677;-64
2023/04/13 05:58:21;;;;;;;1.80;0.80;;;9.90;99.90;;;10.02;nan;99523.34;5011849;28;20649;-63
2023/04/13 06:00:48;;;;;;;0.70;0.70;;;10.00;99.90;;;10.03;nan;99524.97;5008144;28;21266;-63
2023/04/13 06:03:15;;;;;;;0.80;0.80;;;10.00;99.90;;;10.00;nan;99527.84;4993009;28;20636;-64
2023/04/13 06:05:43;;;;;;;0.70;0.67;;;9.90;99.90;;;9.97;nan;99525.50;4993065;28;20658;-62
2023/04/13 06:08:10;;;;;;;0.50;0.50;;;9.90;99.90;;;9.98;nan;99530.59;4992333;28;20638;-64
2023/04/13 06:10:37;;;;;;;2.70;0.90;;;9.90;99.90;;;10.02;nan;99531.97;4992215;28;20765;-63
2023/04/13 06:13:04;;;;;;;1.13;0.57;;;9.90;99.90;;;10.05;nan;99533.50;5009244;28;20718;-66
2023/04/13 06:15:33;;;;;;;0.90;0.63;;;10.00;99.90;;;10.10;nan;99528.69;4990216;28;20682;-65
2023/04/13 06:18:00;;;;;;;2.87;0.80;;;10.00;99.90;;;10.12;nan;99532.84;4976124;28;20667;-64
2023/04/13 06:20:27;;;;;;;0.40;0.40;;;10.10;99.90;;;10.14;nan;99532.72;4987462;28;20646;-64
2023/04/13 06:22:54;;;;;;;0.63;0.50;;;10.10;99.90;;;10.13;nan;99520.66;5007207;28;20609;-65
2023/04/13 06:25:21;;;;;;;1.07;0.43;;;10.10;99.90;;;10.13;nan;99531.09;4998034;28;21334;-65
2023/04/13 06:27:48;;;;;;;0.67;0.63;;;10.10;99.90;;;10.00;nan;99531.28;5008484;28;20691;-64
2023/04/13 06:30:15;;;;;;;3.03;1.70;;;10.00;99.90;;;10.00;nan;99530.47;5000527;28;20642;-64
2023/04/13 06:32:42;;;;;;;2.10;0.93;;;9.90;99.90;;;10.05;nan;99533.50;4985391;28;20630;-65
2023/04/13 06:35:10;;;;;;;2.80;0.60;;;10.00;99.90;;;10.04;nan;99537.88;4984069;28;20681;-64
2023/04/13 06:37:38;;;;;;;0.90;0.50;;;10.00;99.90;;;9.99;nan;99539.22;4984782;28;20669;-65
2023/04/13 06:40:09;;;;;;;2.10;0.97;;;9.90;99.90;;;10.01;nan;99539.91;4984503;28;21256;-64
2023/04/13 06:42:40;;;;;;;0.53;0.53;;;9.90;99.90;;;10.07;nan;99536.81;4986502;28;20653;-64
2023/04/13 06:45:11;;;;;;;0.93;0.90;;;10.00;99.90;;;10.18;nan;99535.91;4991696;28;20661;-64
2023/04/13 06:47:42;;;;;;;1.50;0.77;;;10.10;99.90;;;10.27;nan;99541.13;4973951;28;20646;-65
2023/04/13 06:50:12;;;;;;;1.17;0.73;;;10.20;99.90;;;10.30;nan;99532.19;4989771;28;20693;-65
2023/04/13 06:52:43;;;;;;;0.93;0.70;;;10.20;99.90;;;10.36;nan;99540.31;4991389;28;20611;-64
2023/04/13 06:55:10;;;;;;;0.40;0.40;;;10.20;99.90;;;10.41;nan;99548.56;4984816;28;20686;-65
2023/04/13 06:57:37;;;;;;;0.90;0.90;;;10.30;99.90;;;10.37;nan;99538.53;4998296;28;21044;-65
2023/04/13 07:00:09;;;;;;;0.73;0.70;;;10.30;99.90;;;10.37;nan;99539.34;4990215;28;20634;-65
2023/04/13 07:02:52;;;;;;;0.53;0.43;;;10.30;99.90;;;10.24;nan;99544.00;5000453;28;20617;-64
2023/04/13 07:05:19;;;;;;;1.63;0.60;;;10.20;99.90;;;10.13;nan;99549.31;4993042;28;20664;-64
2023/04/13 07:07:46;;;;;;;1.40;0.70;;;10.10;99.90;;;10.01;nan;99545.13;4992849;28;20707;-64
2023/04/13 07:10:13;;;;;;;3.17;1.10;;;10.00;99.90;;;9.95;nan;99553.47;4992116;28;20672;-64
2023/04/13 07:12:41;;;;;;;0.50;0.50;;;9.90;99.90;;;9.93;nan;99558.00;5009186;28;20645;-65
2023/04/13 07:15:08;;;;;;;0.73;0.47;;;9.90;99.90;;;9.93;nan;99566.66;4996676;28;20662;-64
2023/04/13 07:17:35;;;;;;;0.63;0.53;;;9.90;99.90;;;9.88;nan;99557.59;4988910;28;21239;-65
2023/04/13 07:20:04;;;;;;;0.93;0.83;;;9.80;99.90;;;9.86;nan;99568.13;4983777;28;21210;-63
2023/04/13 07:22:32;;;;;;;2.60;0.50;;;9.80;99.90;;;9.76;nan;99564.66;4985935;28;20932;-63
2023/04/13 07:25:00;;;;;;;0.60;0.60;;;9.70;99.90;;;9.70;nan;99566.94;4986973;28;20671;-65
2023/04/13 07:27:27;;;;;;;2.20;0.83;;;9.60;99.90;;;9.63;nan;99558.00;4990285;28;20638;-64
2023/04/13 07:29:54;;;;;;;0.80;0.77;;;9.60;99.90;;;9.53;nan;99567.56;4988837;28;20642;-65
2023/04/13 07:32:21;;;;;;;0.50;0.40;;;9.50;99.90;;;9.41;nan;99566.81;4991059;28;20636;-65
2023/04/13 07:34:59;;;;;;;0.73;0.73;;;9.40;99.90;;;9.39;nan;99569.53;4987516;28;21280;-65
2023/04/13 07:37:27;;;;;;;1.80;0.90;;;9.40;99.90;;;9.40;nan;99557.34;4988687;28;21260;-65
2023/04/13 07:39:54;;;;;;;1.00;0.50;;;9.30;99.90;;;9.42;nan;99563.25;4988916;28;20619;-64
2023/04/13 07:42:21;;;;;;;0.60;0.40;;;9.40;99.90;;;9.48;nan;99551.47;4987131;28;20747;-65
2023/04/13 07:44:48;;;;;;;1.70;0.80;;;9.40;99.90;;;9.47;nan;99562.88;4988104;28;20669;-65
2023/04/13 07:47:15;;;;;;;0.60;0.60;;;9.50;99.90;;;9.47;nan;99566.31;4987622;28;20748;-66
2023/04/13 07:49:42;;;;;;;2.10;0.80;;;9.40;99.90;;;9.59;nan;99561.81;4985060;28;20637;-63
2023/04/13 07:52:09;;;;;;;2.00;1.00;;;9.50;99.90;;;9.68;nan;99567.09;4980363;28;21223;-64
2023/04/13 07:54:36;;;;;;;1.70;0.60;;;9.60;99.90;;;9.79;nan;99564.41;4981750;28;20665;-67
2023/04/13 07:57:04;;;;;;;0.30;0.30;;;9.70;99.90;;;9.88;nan;99573.22;5005058;28;20622;-64
2023/04/13 07:59:31;;;;;;;0.47;0.47;;;9.80;99.90;;;9.89;nan;99574.84;4998050;28;20629;-61
2023/04/13 08:01:58;;;;;;;0.97;0.50;;;9.80;99.90;;;9.87;nan;99580.19;4990259;28;20614;-64
2023/04/13 08:04:25;;;;;;;0.40;0.40;;;9.80;99.90;;;9.85;nan;99578.69;4974970;28;21102;-62
2023/04/13 08:06:52;;;;;;;0.93;0.93;;;9.80;99.90;;;9.83;nan;99584.03;4979775;28;20642;-62
2023/04/13 08:09:20;;;;;;;1.40;0.67;;;9.80;99.90;;;9.89;nan;99582.66;4978537;28;20647;-64
2023/04/13 08:11:48;;;;;;;2.07;0.90;;;9.80;99.90;;;9.90;nan;99586.94;4989904;28;20638;-63
2023/04/13 08:14:15;;;;;;;6.50;1.30;;;9.90;99.90;;;9.90;nan;99587.75;4989267;28;20649;-64
2023/04/13 08:16:42;;;;;;;0.50;0.50;;;9.90;99.90;;;9.93;nan;99589.25;4987723;28;20638;-64
2023/04/13 08:19:09;;;;;;;3.20;0.97;;;9.90;99.90;;;10.01;nan;99590.25;4995626;28;20656;-64
2023/04/13 08:21:40;;;;;;;3.50;0.70;;;9.90;99.90;;;10.19;nan;99592.28;5005286;28;20623;-63
2023/04/13 08:24:08;;;;;;;1.37;0.80;;;10.10;99.90;;;10.26;nan;99590.78;4993616;28;20622;-64
2023/04/13 08:26:35;;;;;;;1.07;0.83;;;10.20;99.90;;;10.56;nan;99591.53;4994997;28;20693;-64
2023/04/13 08:29:02;;;;;;;0.80;0.80;;;10.40;99.90;;;10.77;nan;99594.88;4994897;28;20633;-64
2023/04/13 08:31:31;;;;;;;1.53;0.90;;;10.70;99.90;;;11.18;nan;99598.97;4994214;28;20606;-63
2023/04/13 08:33:58;;;;;;;1.83;1.07;;;11.00;99.90;;;11.58;nan;99602.19;4992358;28;20634;-64
2023/04/13 08:36:26;;;;;;;0.80;0.80;;;11.50;99.90;;;12.09;nan;99596.56;4995344;28;20658;-67
2023/04/13 08:38:53;;;;;;;4.03;1.10;;;11.90;99.90;;;12.83;nan;99599.81;4990806;28;20688;-64
2023/04/13 08:41:21;;;;;;;1.40;1.10;;;12.70;99.90;;;13.44;nan;99602.47;4992750;28;20693;-65
2023/04/13 08:43:50;;;;;;;1.37;1.27;;;13.30;99.90;;;13.49;nan;99597.59;4994682;28;20634;-65
2023/04/13 08:46:21;;;;;;;1.53;1.20;;;13.50;99.90;;;13.71;nan;99610.22;4994382;28;20650;-65
2023/04/13 08:48:50;;;;;;;0.67;0.67;;;13.70;99.90;;;13.32;nan;99605.50;4992488;28;20625;-64
2023/04/13 08:51:21;;;;;;;1.20;1.00;;;13.40;99.90;;;12.99;nan;99602.56;5006124;28;20691;-64
2023/04/13 08:53:57;;;;;;;4.10;1.17;;;13.00;99.90;;;12.84;nan;99608.50;4995664;28;20641;-64
2023/04/13 08:56:26;;;;;;;2.87;1.03;;;12.90;99.90;;;12.63;nan;99607.97;4997048;28;20669;-65
2023/04/13 08:59:10;;;;;;;1.70;0.97;;;12.70;99.90;;;12.48;nan;99609.44;4990467;28;21255;-64
2023/04/13 09:01:38;;;;;;;0.80;0.80;;;12.50;99.90;;;12.50;nan;99612.72;5000136;28;21213;-64
2023/04/13 09:04:12;;;;;;;2.10;0.93;;;12.40;99.90;;;12.78;nan;99606.44;5009426;28;20643;-64
2023/04/13 09:06:41;;;;;;;1.27;1.10;;;12.70;99.90;;;13.20;nan;99607.53;4999548;28;20668;-64
2023/04/13 09:09:13;;;;;;;4.33;1.10;;;13.10;99.90;;;13.56;nan;99606.50;4991609;28;20638;-64
2023/04/13 09:11:41;;;;;;;1.17;1.07;;;13.50;99.90;;;13.80;nan;99606.63;4986325;28;20635;-64
2023/04/13 09:14:09;;;;;;;1.57;1.07;;;13.70;99.90;;;13.85;nan;99608.78;4980519;28;20633;-64
2023/04/13 09:16:40;;;;;;;1.00;0.90;;;13.80;99.90;;;14.05;nan;99606.78;5010529;28;20629;-65
2023/04/13 09:19:08;;;;;;;0.83;0.60;;;13.90;99.90;;;14.16;nan;99611.75;4981607;28;20678;-65
2023/04/13 09:21:41;;;;;;;2.57;0.70;;;14.10;99.90;;;14.46;nan;99612.03;4992433;28;20684;-64
2023/04/13 09:24:09;;;;;;;2.50;0.60;;;14.30;99.90;;;15.35;nan;99615.59;4991465;28;20622;-65
2023/04/13 09:26:45;;;;;;;2.93;0.80;;;15.30;99.90;;;15.64;nan;99624.81;4991844;28;20645;-64
2023/04/13 09:29:17;;;;;;;0.50;0.50;;;15.70;99.90;;;15.52;nan;99619.91;4992424;28;20683;-64
2023/04/13 09:31:46;;;;;;;1.57;0.47;;;15.60;99.90;;;15.06;nan;99620.53;4993973;28;21060;-62
2023/04/13 09:34:25;;;;;;;1.17;0.67;;;15.10;99.90;;;14.60;nan;99629.00;4998378;28;20618;-65
2023/04/13 09:36:53;;;;;;;0.70;0.50;;;14.70;99.90;;;14.28;nan;99639.34;4994988;28;21017;-64
2023/04/13 09:39:26;;;;;;;0.90;0.57;;;14.30;99.90;;;14.00;nan;99634.28;4992795;28;20653;-64
2023/04/13 09:41:54;;;;;;;0.60;0.60;;;14.10;99.90;;;13.74;nan;99651.00;4987088;28;20704;-64
2023/04/13 09:44:26;;;;;;;0.80;0.80;;;13.80;99.90;;;13.45;nan;99643.44;5009987;28;20647;-65
2023/04/13 09:47:03;;;;;;;0.60;0.60;;;13.50;99.90;;;13.35;nan;99649.75;5004306;28;20644;-64
2023/04/13 09:49:41;;;;;;;0.93;0.30;;;13.40;99.90;;;13.23;nan;99651.75;4989177;28;20629;-65
2023/04/13 09:52:23;;;;;;;0.73;0.73;;;13.20;99.90;;;13.11;nan;99655.59;4994772;28;20636;-65
2023/04/13 09:54:53;;;;;;;0.20;0.20;;;13.00;99.90;;;13.01;nan;99642.50;4990846;28;20669;-64
2023/04/13 09:57:28;;;;;;;0.73;0.50;;;12.90;99.90;;;13.09;nan;99654.91;4990519;28;20650;-65
2023/04/13 09:59:59;;;;;;;0.40;0.40;;;13.00;99.90;;;13.15;nan;99649.91;4992642;28;20609;-64
2023/04/13 10:02:26;;;;;;;0.80;0.70;;;13.00;99.90;;;13.22;nan;99650.13;4990130;28;20606;-64
2023/04/13 10:04:55;;;;;;;0.80;0.60;;;13.10;99.90;;;13.37;nan;99648.63;4992570;28;20678;-64
2023/04/13 10:07:25;;;;;;;0.50;0.50;;;13.20;99.90;;;13.43;nan;99648.00;4988578;28;20642;-65
2023/04/13 10:09:53;;;;;;;1.17;0.80;;;13.30;99.90;;;13.45;nan;99648.69;4991946;28;21150;-65
2023/04/13 10:12:25;;;;;;;2.40;0.60;;;13.40;99.90;;;13.45;nan;99646.06;4990538;28;20646;-64
2023/04/13 10:15:41;;;;;;;0.70;0.70;;;13.40;99.90;;;13.50;nan;99654.25;4991325;28;20658;-64
2023/04/13 10:18:43;;;;;;;3.13;0.63;;;13.40;99.90;;;13.54;nan;99647.78;4990010;28;20677;-65
2023/04/13 10:21:12;;;;;;;0.83;0.57;;;13.40;99.90;;;13.48;nan;99640.50;4991771;28;20683;-65
2023/04/13 10:23:40;;;;;;;0.70;0.70;;;13.40;99.90;;;13.52;nan;99646.28;4989679;28;21193;-64
2023/04/13 10:26:08;;;;;;;0.50;0.50;;;13.40;99.90;;;13.49;nan;99642.16;4991883;28;20692;-65
2023/04/13 10:28:48;;;;;;;0.37;0.37;;;13.40;99.90;;;13.47;nan;99653.75;4988904;28;20634;-65
2023/04/13 10:31:15;;;;;;;0.30;0.30;;;13.40;99.90;;;13.37;nan;99645.16;4991564;28;21259;-64
2023/04/13 10:33:50;;;;;;;0.33;0.33;;;13.30;99.90;;;13.37;nan;99647.78;4990104;28;21252;-65
2023/04/13 10:36:17;;;;;;;2.43;0.90;;;13.30;99.90;;;13.33;nan;99649.88;4991384;28;20664;-65
2023/04/13 10:38:45;;;;;;;0.50;0.50;;;13.20;99.90;;;13.31;nan;99651.81;4985015;28;20669;-64
2023/04/13 10:41:25;;;;;;;0.57;0.57;;;13.20;99.90;;;13.39;nan;99646.66;4994529;28;20623;-65
2023/04/13 10:44:09;;;;;;;1.30;0.77;;;13.20;99.90;;;13.49;nan;99652.63;4990650;28;21004;-65
2023/04/13 10:46:36;;;;;;;1.63;0.60;;;13.40;99.90;;;13.62;nan;99653.06;4991548;28;20610;-65
2023/04/13 10:49:03;;;;;;;0.70;0.63;;;13.50;99.90;;;13.70;nan;99655.72;4989455;28;20646;-65
2023/04/13 10:51:42;;;;;;;0.43;0.43;;;13.60;99.90;;;13.71;nan;99654.78;4990236;28;20614;-64
2023/04/13 10:54:12;;;;;;;2.40;0.90;;;13.60;99.90;;;13.57;nan;99659.72;4988677;28;20646;-62